createdAt,value
2023-06-01T00:00:26.181Z,38.72
2023-06-01T00:03:46.063Z,38.55
2023-06-01T00:06:16.532Z,38.19
2023-06-01T00:08:52.244Z,38.42
2023-06-01T00:11:31.720Z,38.68
2023-06-01T00:14:10.796Z,38.31
2023-06-01T00:16:49.488Z,38.68
2023-06-01T00:19:28.427Z,38.59
2023-06-01T00:22:08.618Z,38.75
2023-06-01T00:24:47.228Z,39.26
2023-06-01T00:27:25.481Z,38.59
2023-06-01T00:30:03.884Z,39.14
2023-06-01T00:32:41.827Z,39.43
2023-06-01T00:35:20.281Z,40.17
2023-06-01T00:37:58.525Z,40.30
2023-06-01T00:40:36.610Z,40.29
2023-06-01T00:43:15.051Z,40.34
2023-06-01T00:45:53.401Z,40.47
2023-06-01T00:48:32.046Z,40.35
2023-06-01T00:51:16.346Z,40.12
2023-06-01T00:53:55.355Z,40.26
2023-06-01T00:56:34.535Z,40.10
2023-06-01T00:59:14.645Z,40.09
2023-06-01T01:01:53.705Z,39.92
2023-06-01T01:04:27.836Z,39.92
2023-06-01T01:07:28.204Z,39.79
2023-06-01T01:10:31.988Z,39.42
2023-06-01T01:13:29.687Z,39.94
2023-06-01T01:16:33.601Z,39.62
2023-06-01T01:19:46.529Z,39.61
2023-06-01T01:23:02.626Z,39.04
2023-06-01T01:25:54.937Z,39.34
2023-06-01T01:28:51.814Z,39.06
2023-06-01T01:31:32.157Z,39.01
2023-06-01T01:34:11.529Z,39.00
2023-06-01T01:36:50.867Z,39.22
2023-06-01T01:39:30.088Z,39.19
2023-06-01T01:42:09.102Z,38.87
2023-06-01T01:44:47.801Z,39.23
2023-06-01T01:47:36.010Z,38.86
2023-06-01T01:50:13.903Z,38.91
2023-06-01T01:52:53.226Z,38.81
2023-06-01T01:55:32.223Z,38.57
2023-06-01T01:58:09.817Z,38.62
2023-06-01T02:00:49.725Z,38.75
2023-06-01T02:03:29.527Z,39.07
2023-06-01T02:06:08.588Z,39.04
2023-06-01T02:08:47.074Z,38.71
2023-06-01T02:11:26.137Z,39.04
2023-06-01T02:14:04.746Z,38.86
2023-06-01T02:16:35.093Z,38.89
2023-06-01T02:19:16.901Z,39.20
2023-06-01T02:21:54.800Z,39.41
2023-06-01T02:24:33.233Z,39.99
2023-06-01T02:27:13.344Z,40.49
2023-06-01T02:29:51.107Z,41.19
2023-06-01T02:32:32.037Z,41.43
2023-06-01T02:35:11.873Z,42.02
2023-06-01T02:37:50.880Z,42.61
2023-06-01T02:40:29.090Z,42.63
2023-06-01T02:43:08.090Z,42.67
2023-06-01T02:45:46.186Z,43.05
2023-06-01T02:48:16.816Z,43.18
2023-06-01T02:50:53.879Z,43.03
2023-06-01T02:53:32.793Z,43.23
2023-06-01T02:56:09.755Z,43.28
2023-06-01T02:58:48.113Z,43.34
2023-06-01T03:01:27.734Z,43.59
2023-06-01T03:04:06.576Z,43.39
2023-06-01T03:06:46.901Z,43.41
2023-06-01T03:09:26.027Z,43.36
2023-06-01T03:12:05.297Z,43.49
2023-06-01T03:14:43.580Z,43.86
2023-06-01T03:17:22.466Z,43.96
2023-06-01T03:20:00.810Z,44.11
2023-06-01T03:22:37.077Z,43.97
2023-06-01T03:25:17.805Z,44.50
2023-06-01T03:27:56.653Z,44.07
2023-06-01T03:30:35.459Z,44.38
2023-06-01T03:33:14.584Z,43.91
2023-06-01T03:35:53.630Z,43.73
2023-06-01T03:38:32.357Z,43.89
2023-06-01T03:41:11.637Z,43.84
2023-06-01T03:43:51.161Z,43.70
2023-06-01T03:46:30.079Z,42.93
2023-06-01T03:49:00.410Z,42.87
2023-06-01T03:51:37.410Z,42.95
2023-06-01T03:54:15.762Z,42.59
2023-06-01T03:56:54.266Z,43.07
2023-06-01T03:59:33.442Z,42.82
2023-06-01T04:02:14.263Z,42.34
2023-06-01T04:04:52.657Z,41.73
2023-06-01T04:07:32.263Z,41.86
2023-06-01T04:10:12.671Z,41.28
2023-06-01T04:12:52.360Z,40.92
2023-06-01T04:15:31.668Z,41.08
2023-06-01T04:18:11.418Z,40.79
2023-06-01T04:20:50.435Z,40.47
2023-06-01T04:23:29.496Z,40.10
2023-06-01T04:26:08.310Z,40.24
2023-06-01T04:28:47.747Z,39.19
2023-06-01T04:31:26.728Z,39.05
2023-06-01T04:34:06.858Z,38.44
2023-06-01T04:36:45.794Z,37.91
2023-06-01T04:39:24.885Z,36.40
2023-06-01T04:42:04.291Z,35.66
2023-06-01T04:44:43.162Z,33.71
2023-06-01T04:47:23.380Z,33.15
2023-06-01T04:50:02.228Z,32.69
2023-06-01T04:52:46.270Z,31.56
2023-06-01T04:55:25.816Z,30.41
2023-06-01T04:58:05.170Z,29.20
2023-06-01T05:00:44.271Z,28.49
2023-06-01T05:03:22.979Z,27.54
2023-06-01T05:06:02.294Z,26.63
2023-06-01T05:08:43.728Z,25.90
2023-06-01T05:11:22.940Z,25.22
2023-06-01T05:13:54.007Z,25.20
2023-06-01T05:16:27.115Z,25.05
2023-06-01T05:18:58.974Z,24.89
2023-06-01T05:21:38.619Z,24.10
2023-06-01T05:24:18.269Z,23.56
2023-06-01T05:26:57.106Z,23.60
2023-06-01T05:29:39.042Z,23.64
2023-06-01T05:32:18.921Z,23.58
2023-06-01T05:34:57.767Z,23.64
2023-06-01T05:37:36.751Z,23.35
2023-06-01T05:40:16.884Z,23.61
2023-06-01T05:42:55.276Z,23.41
2023-06-01T05:45:34.540Z,22.70
2023-06-01T05:48:16.261Z,22.96
2023-06-01T05:50:56.145Z,22.42
2023-06-01T05:53:33.356Z,22.46
2023-06-01T05:56:10.453Z,22.29
2023-06-01T05:58:56.624Z,21.96
2023-06-01T06:01:28.707Z,22.59
2023-06-01T06:04:08.777Z,22.26
2023-06-01T06:06:48.250Z,22.45
2023-06-01T06:09:28.158Z,22.07
2023-06-01T06:12:10.731Z,21.96
2023-06-01T06:14:52.164Z,22.49
2023-06-01T06:17:30.980Z,22.63
2023-06-01T06:20:12.168Z,22.81
2023-06-01T06:22:54.898Z,22.57
2023-06-01T06:25:34.692Z,22.25
2023-06-01T06:28:15.875Z,22.45
2023-06-01T06:30:50.572Z,21.98
2023-06-01T06:33:30.103Z,22.17
2023-06-01T06:36:10.924Z,22.55
2023-06-01T06:38:50.416Z,22.33
2023-06-01T06:41:29.779Z,22.10
2023-06-01T06:44:09.574Z,22.04
2023-06-01T06:46:50.267Z,21.27
2023-06-01T06:49:30.236Z,21.17
2023-06-01T06:52:12.446Z,20.96
2023-06-01T06:54:52.629Z,21.36
2023-06-01T06:57:35.373Z,21.09
2023-06-01T07:00:16.779Z,20.82
2023-06-01T07:02:57.979Z,20.53
2023-06-01T07:05:37.722Z,21.13
2023-06-01T07:08:17.760Z,20.87
2023-06-01T07:10:57.583Z,20.59
2023-06-01T07:13:37.211Z,20.59
2023-06-01T07:16:17.446Z,20.44
2023-06-01T07:18:57.685Z,20.78
2023-06-01T07:21:38.101Z,20.46
2023-06-01T07:24:20.644Z,20.91
2023-06-01T07:27:01.178Z,20.94
2023-06-01T07:29:41.061Z,20.78
2023-06-01T07:32:20.809Z,20.31
2023-06-01T07:35:03.564Z,20.00
2023-06-01T07:37:42.902Z,19.80
2023-06-01T07:40:23.430Z,20.01
2023-06-01T07:43:03.653Z,20.25
2023-06-01T07:45:43.004Z,20.25
2023-06-01T07:48:22.585Z,20.21
2023-06-01T07:51:02.532Z,19.49
2023-06-01T07:53:41.971Z,19.72
2023-06-01T07:56:22.529Z,19.57
2023-06-01T07:59:03.390Z,19.83
2023-06-01T08:01:43.622Z,19.61
2023-06-01T08:04:23.778Z,19.19
2023-06-01T08:07:05.982Z,19.88
2023-06-01T08:09:44.783Z,19.92
2023-06-01T08:12:23.764Z,20.27
2023-06-01T08:15:02.701Z,19.95
2023-06-01T08:17:41.948Z,19.99
2023-06-01T08:20:27.316Z,20.07
2023-06-01T08:23:04.706Z,19.95
2023-06-01T08:25:44.210Z,19.93
2023-06-01T08:28:23.735Z,19.89
2023-06-01T08:31:03.370Z,19.59
2023-06-01T08:33:36.384Z,19.69
2023-06-01T08:36:16.792Z,19.40
2023-06-01T08:38:58.182Z,19.06
2023-06-01T08:41:43.713Z,19.69
2023-06-01T08:44:25.079Z,19.83
2023-06-01T08:47:05.518Z,20.05
2023-06-01T08:49:46.487Z,19.74
2023-06-01T08:52:30.305Z,19.69
2023-06-01T08:55:06.379Z,19.53
2023-06-01T08:57:45.386Z,19.50
2023-06-01T09:00:25.438Z,19.25
2023-06-01T09:03:05.715Z,19.33
2023-06-01T09:05:45.604Z,19.42
2023-06-01T09:08:30.214Z,19.46
2023-06-01T09:11:06.138Z,19.28
2023-06-01T09:13:46.149Z,19.33
2023-06-01T09:16:38.524Z,19.28
2023-06-01T09:19:10.587Z,19.81
2023-06-01T09:22:04.379Z,19.74
2023-06-01T09:24:58.197Z,19.75
2023-06-01T09:27:50.893Z,19.59
2023-06-01T09:30:47.331Z,19.84
2023-06-01T09:33:28.539Z,19.91
2023-06-01T09:36:09.781Z,19.98
2023-06-01T09:38:48.784Z,19.65
2023-06-01T09:41:28.484Z,19.39
2023-06-01T09:44:08.355Z,19.55
2023-06-01T09:47:02.004Z,19.85
2023-06-01T09:49:46.952Z,19.95
2023-06-01T09:52:27.362Z,19.94
2023-06-01T09:55:11.027Z,20.08
2023-06-01T09:57:47.629Z,20.16
2023-06-01T10:00:28.255Z,20.27
2023-06-01T10:03:08.600Z,20.74
2023-06-01T10:05:48.370Z,21.03
2023-06-01T10:08:28.139Z,21.09
2023-06-01T10:11:05.915Z,21.20
2023-06-01T10:13:44.884Z,21.16
2023-06-01T10:16:24.484Z,21.30
2023-06-01T10:19:04.641Z,21.81
2023-06-01T10:21:47.500Z,21.61
2023-06-01T10:24:28.356Z,21.36
2023-06-01T10:27:47.371Z,21.23
2023-06-01T10:30:26.999Z,21.19
2023-06-01T10:33:06.175Z,21.54
2023-06-01T10:35:48.538Z,21.67
2023-06-01T10:38:28.634Z,21.77
2023-06-01T10:41:39.188Z,21.45
2023-06-01T10:44:43.108Z,21.80
2023-06-01T10:47:41.624Z,21.81
2023-06-01T10:50:22.469Z,21.74
2023-06-01T10:53:33.671Z,21.96
2023-06-01T10:56:29.138Z,22.47
2023-06-01T11:01:49.167Z,22.12
2023-06-01T11:04:42.667Z,21.94
2023-06-01T11:07:45.719Z,22.00
2023-06-01T11:11:07.901Z,21.55
2023-06-01T11:13:48.081Z,22.36
2023-06-01T11:16:28.157Z,22.30
2023-06-01T11:19:10.468Z,21.97
2023-06-01T11:21:50.313Z,22.26
2023-06-01T11:24:33.045Z,22.27
2023-06-01T11:27:12.641Z,22.12
2023-06-01T11:29:50.266Z,21.91
2023-06-01T11:32:30.092Z,22.10
2023-06-01T11:35:23.004Z,21.94
2023-06-01T11:38:05.718Z,21.77
2023-06-01T11:40:39.786Z,22.16
2023-06-01T11:43:12.913Z,22.52
2023-06-01T11:46:21.843Z,22.77
2023-06-01T11:49:13.786Z,22.59
2023-06-01T11:51:52.661Z,22.52
2023-06-01T11:54:31.420Z,22.70
2023-06-01T11:57:12.745Z,23.19
2023-06-01T11:59:51.530Z,23.18
2023-06-01T12:02:29.301Z,23.67
2023-06-01T12:05:11.099Z,23.32
2023-06-01T12:07:52.648Z,23.38
2023-06-01T12:10:32.096Z,23.58
2023-06-01T12:13:12.562Z,23.12
2023-06-01T12:15:52.905Z,23.08
2023-06-01T12:18:33.074Z,22.82
2023-06-01T12:21:14.262Z,22.65
2023-06-01T12:23:53.981Z,23.13
2023-06-01T12:26:39.194Z,23.33
2023-06-01T12:29:12.157Z,23.38
2023-06-01T12:32:05.563Z,22.98
2023-06-01T12:35:05.896Z,22.71
2023-06-01T12:37:46.874Z,22.81
2023-06-01T12:40:32.516Z,22.35
2023-06-01T12:43:20.992Z,21.72
2023-06-01T12:45:53.596Z,21.95
2023-06-01T12:48:38.335Z,22.17
2023-06-01T12:51:13.723Z,22.53
2023-06-01T12:53:52.928Z,22.35
2023-06-01T12:56:33.924Z,21.96
2023-06-01T12:59:12.689Z,22.24
2023-06-01T13:01:52.704Z,22.43
2023-06-01T13:04:32.761Z,22.36
2023-06-01T13:07:13.360Z,22.36
2023-06-01T13:09:52.767Z,22.20
2023-06-01T13:12:29.572Z,21.93
2023-06-01T13:15:11.233Z,22.18
2023-06-01T13:17:49.423Z,22.28
2023-06-01T13:20:25.435Z,22.05
2023-06-01T13:23:08.741Z,21.42
2023-06-01T13:25:50.583Z,21.56
2023-06-01T13:28:33.853Z,21.41
2023-06-01T13:31:09.421Z,21.81
2023-06-01T13:33:54.508Z,22.07
2023-06-01T13:36:34.427Z,21.86
2023-06-01T13:39:14.370Z,22.05
2023-06-01T13:41:54.787Z,21.99
2023-06-01T13:44:35.204Z,22.28
2023-06-01T13:47:16.184Z,21.92
2023-06-01T13:49:54.258Z,21.83
2023-06-01T13:52:32.692Z,21.89
2023-06-01T13:55:13.259Z,22.19
2023-06-01T13:57:52.226Z,22.02
2023-06-01T14:00:30.901Z,22.02
2023-06-01T14:03:09.889Z,22.24
2023-06-01T14:06:04.071Z,21.97
2023-06-01T14:08:37.136Z,21.79
2023-06-01T14:11:14.943Z,22.18
2023-06-01T14:13:54.473Z,22.09
2023-06-01T14:16:34.793Z,21.79
2023-06-01T14:19:13.666Z,21.87
2023-06-01T14:21:52.019Z,22.07
2023-06-01T14:24:31.667Z,21.81
2023-06-01T14:27:10.497Z,22.21
2023-06-01T14:29:49.464Z,22.01
2023-06-01T14:32:29.342Z,21.96
2023-06-01T14:35:10.025Z,22.24
2023-06-01T14:37:50.323Z,22.40
2023-06-01T14:40:33.319Z,22.95
2023-06-01T14:43:14.151Z,22.61
2023-06-01T14:45:53.338Z,22.76
2023-06-01T14:48:33.150Z,22.48
2023-06-01T14:51:11.859Z,22.41
2023-06-01T14:53:50.957Z,22.30
2023-06-01T14:56:30.055Z,22.15
2023-06-01T14:59:08.404Z,22.53
2023-06-01T15:01:47.631Z,22.45
2023-06-01T15:04:26.741Z,22.39
2023-06-01T15:07:05.406Z,22.85
2023-06-01T15:09:43.721Z,23.21
2023-06-01T15:12:22.412Z,23.23
2023-06-01T15:15:01.097Z,23.48
2023-06-01T15:17:40.665Z,23.51
2023-06-01T15:20:20.041Z,23.60
2023-06-01T15:22:50.792Z,23.63
2023-06-01T15:25:22.781Z,23.67
2023-06-01T15:27:57.325Z,23.72
2023-06-01T15:30:35.565Z,23.51
2023-06-01T15:33:16.246Z,23.86
2023-06-01T15:35:55.393Z,23.88
2023-06-01T15:38:33.807Z,24.07
2023-06-01T15:41:15.969Z,24.04
2023-06-01T15:43:55.912Z,24.43
2023-06-01T15:46:35.065Z,24.47
2023-06-01T15:49:15.030Z,24.33
2023-06-01T15:51:53.526Z,24.31
2023-06-01T15:54:33.880Z,24.81
2023-06-01T15:57:15.886Z,25.10
2023-06-01T15:59:55.093Z,25.37
2023-06-01T16:02:34.452Z,25.36
2023-06-01T16:05:15.504Z,25.22
2023-06-01T16:07:54.239Z,25.43
2023-06-01T16:10:32.820Z,25.33
2023-06-01T16:13:12.216Z,25.43
2023-06-01T16:15:50.615Z,25.50
2023-06-01T16:18:29.230Z,25.69
2023-06-01T16:21:07.663Z,25.73
2023-06-01T16:23:46.133Z,26.37
2023-06-01T16:26:25.830Z,26.41
2023-06-01T16:29:05.053Z,26.45
2023-06-01T16:31:44.209Z,25.91
2023-06-01T16:34:22.835Z,25.83
2023-06-01T16:37:02.168Z,25.96
2023-06-01T16:39:41.389Z,26.12
2023-06-01T16:42:21.302Z,26.50
2023-06-01T16:45:00.505Z,26.63
2023-06-01T16:47:38.566Z,26.78
2023-06-01T16:50:17.787Z,26.92
2023-06-01T16:52:57.893Z,27.40
2023-06-01T16:55:34.718Z,27.40
2023-06-01T16:58:14.904Z,27.59
2023-06-01T17:00:54.341Z,27.71
2023-06-01T17:03:26.977Z,28.08
2023-06-01T17:06:00.383Z,28.33
2023-06-01T17:08:40.329Z,28.89
2023-06-01T17:11:20.582Z,29.02
2023-06-01T17:14:00.334Z,29.01
2023-06-01T17:16:40.428Z,29.62
2023-06-01T17:19:20.017Z,29.80
2023-06-01T17:21:59.312Z,29.92
2023-06-01T17:24:38.000Z,30.02
2023-06-01T17:27:18.523Z,30.32
2023-06-01T17:29:58.148Z,30.65
2023-06-01T17:32:37.559Z,30.90
2023-06-01T17:35:17.681Z,31.31
2023-06-01T17:37:56.897Z,31.78
2023-06-01T17:40:36.864Z,31.95
2023-06-01T17:43:17.722Z,32.28
2023-06-01T17:45:57.972Z,32.48
2023-06-01T17:48:38.842Z,32.91
2023-06-01T17:51:17.738Z,33.00
2023-06-01T17:53:56.584Z,33.17
2023-06-01T17:56:35.088Z,33.63
2023-06-01T17:59:17.106Z,34.09
2023-06-01T18:01:57.747Z,34.66
2023-06-01T18:04:34.430Z,34.85
2023-06-01T18:07:14.750Z,35.20
2023-06-01T18:09:55.090Z,35.33
2023-06-01T18:12:35.807Z,35.39
2023-06-01T18:15:16.298Z,35.27
2023-06-01T18:17:56.940Z,34.63
2023-06-01T18:20:36.461Z,34.59
2023-06-01T18:23:16.911Z,34.75
2023-06-01T18:25:57.408Z,34.70
2023-06-01T18:28:37.151Z,34.48
2023-06-01T18:31:19.073Z,34.68
2023-06-01T18:33:58.987Z,34.65
2023-06-01T18:36:39.375Z,34.70
2023-06-01T18:39:19.188Z,34.88
2023-06-01T18:41:59.669Z,34.63
2023-06-01T18:44:39.417Z,34.31
2023-06-01T18:47:20.023Z,34.14
2023-06-01T18:50:03.329Z,34.04
2023-06-01T18:52:35.660Z,34.01
2023-06-01T18:55:17.995Z,34.19
2023-06-01T18:57:58.798Z,34.22
2023-06-01T19:00:38.759Z,34.10
2023-06-01T19:03:21.236Z,34.22
2023-06-01T19:06:02.345Z,34.44
2023-06-01T19:08:43.147Z,34.69
2023-06-01T19:11:22.853Z,34.61
2023-06-01T19:14:03.190Z,34.82
2023-06-01T19:16:36.736Z,35.10
2023-06-01T19:19:17.028Z,35.24
2023-06-01T19:21:57.921Z,35.43
2023-06-01T19:24:37.349Z,35.65
2023-06-01T19:27:17.728Z,36.07
2023-06-01T19:29:57.602Z,36.26
2023-06-01T19:32:37.432Z,36.63
2023-06-01T19:35:17.507Z,36.77
2023-06-01T19:37:55.635Z,36.78
2023-06-01T19:40:36.271Z,37.19
2023-06-01T19:43:43.228Z,37.27
2023-06-01T19:46:27.230Z,37.57
2023-06-01T19:49:07.036Z,37.75
2023-06-01T19:51:46.098Z,38.03
2023-06-01T19:54:29.910Z,38.36
2023-06-01T19:57:12.675Z,38.58
2023-06-01T19:59:54.300Z,38.67
2023-06-01T20:02:54.816Z,39.18
2023-06-01T20:05:27.350Z,39.37
2023-06-01T20:08:09.009Z,39.42
2023-06-01T20:10:47.263Z,39.76
2023-06-01T20:13:25.865Z,39.87
2023-06-01T20:16:05.720Z,40.04
2023-06-01T20:18:45.831Z,40.42
2023-06-01T20:21:24.910Z,40.69
2023-06-01T20:24:04.334Z,40.94
2023-06-01T20:26:43.418Z,40.69
2023-06-01T20:29:22.977Z,41.08
2023-06-01T20:32:02.923Z,41.41
2023-06-01T20:34:41.838Z,41.39
2023-06-01T20:37:21.959Z,41.40
2023-06-01T20:40:01.503Z,41.71
2023-06-01T20:42:41.879Z,41.68
2023-06-01T20:46:02.229Z,41.93
2023-06-01T20:49:01.679Z,42.21
2023-06-01T20:51:44.751Z,42.14
2023-06-01T20:54:31.994Z,42.28
2023-06-01T20:57:12.096Z,42.75
2023-06-01T20:59:50.987Z,42.89
2023-06-01T21:02:31.186Z,43.03
2023-06-01T21:05:12.449Z,43.37
2023-06-01T21:07:50.434Z,43.41
2023-06-01T21:10:29.164Z,43.75
2023-06-01T21:13:08.503Z,43.72
2023-06-01T21:15:47.002Z,43.96
2023-06-01T21:18:26.611Z,44.20
2023-06-01T21:21:05.407Z,44.14
2023-06-01T21:23:44.725Z,44.29
2023-06-01T21:26:17.031Z,44.26
2023-06-01T21:28:49.110Z,44.87
2023-06-01T21:31:27.789Z,44.56
2023-06-01T21:33:59.953Z,44.77
2023-06-01T21:36:38.375Z,44.68
2023-06-01T21:39:17.702Z,45.08
2023-06-01T21:41:50.593Z,45.51
2023-06-01T21:44:29.834Z,46.35
2023-06-01T21:47:09.696Z,46.89
2023-06-01T21:49:47.834Z,47.48
2023-06-01T21:52:27.365Z,48.52
2023-06-01T21:55:07.096Z,48.68
2023-06-01T21:57:46.463Z,48.93
2023-06-01T22:00:25.235Z,50.99
2023-06-01T22:03:04.177Z,51.58
2023-06-01T22:05:42.609Z,52.64
2023-06-01T22:08:13.044Z,52.90
2023-06-01T22:10:49.953Z,53.10
2023-06-01T22:13:28.319Z,53.46
2023-06-01T22:16:07.094Z,54.71
2023-06-01T22:18:45.234Z,54.80
2023-06-01T22:21:23.948Z,55.72
2023-06-01T22:24:02.033Z,55.74
2023-06-01T22:26:40.726Z,56.15
2023-06-01T22:29:18.922Z,56.12
2023-06-01T22:31:57.773Z,56.03
2023-06-01T22:34:37.085Z,57.33
2023-06-01T22:37:16.870Z,57.36
2023-06-01T22:39:55.109Z,58.08
2023-06-01T22:42:33.109Z,58.18
2023-06-01T22:45:13.014Z,58.21
2023-06-01T22:47:51.221Z,58.62
2023-06-01T22:50:30.210Z,59.09
2023-06-01T22:53:09.227Z,59.12
2023-06-01T22:55:47.544Z,58.84
2023-06-01T22:58:25.937Z,59.33
2023-06-01T23:01:05.971Z,59.49
2023-06-01T23:03:46.573Z,60.07
2023-06-01T23:06:17.308Z,60.56
2023-06-01T23:08:52.696Z,60.53
2023-06-01T23:11:33.792Z,60.28
2023-06-01T23:14:14.180Z,60.47
2023-06-01T23:16:51.708Z,61.37
2023-06-01T23:19:35.764Z,60.93
2023-06-01T23:22:16.471Z,61.19
2023-06-01T23:24:51.788Z,61.54
2023-06-01T23:27:30.047Z,61.26
2023-06-01T23:30:10.117Z,61.32
2023-06-01T23:32:49.832Z,60.79
2023-06-01T23:35:29.279Z,60.48
2023-06-01T23:38:12.230Z,60.66
2023-06-01T23:40:51.329Z,61.32
2023-06-01T23:43:29.418Z,61.39
2023-06-01T23:46:08.242Z,61.04
2023-06-01T23:48:47.202Z,61.27
2023-06-01T23:51:26.933Z,62.01
2023-06-01T23:54:05.296Z,62.04
2023-06-01T23:56:38.741Z,62.57
2023-06-01T23:59:17.543Z,62.60
